Latest Weather Observations for Carnarvon

IDW60801

Issued at 9:02 pm WST Saturday 30 April 2016 (issued every 30 minutes, with the page automatically refreshed every 10 minutes)

About weather observations | Map of weather stations | Latest weather observations for WA | Other Formats
Station Details ID: 006011 Name: CARNARVON AIRPORT Lat: -24.89 Lon: 113.67 Height: 4.0 m
Data from the previous 72 hours. | See also: Recent months at Carnarvon
Date/Time
WST
Temp
°C
App
Temp
°C
Dew
Point
Rel
Hum
%
Delta-T
°C
Wind Press
QNH
hPa
Press
MSL
hPa
Rain
since 9 am
mm
Dir
 
Spd
km/h
Gust
km/h
Spd
kts
Gust
kts
30/09:00pm 20.9 17.5 15.9 73 3.0 S 28 35 15 19 1016.6 1016.6 0.0
30/08:30pm 21.2 17.7 15.5 70 3.4 S 28 35 15 19 1016.5 - 0.0
30/08:00pm 21.5 18.6 16.0 71 3.3 S 26 33 14 18 1016.2 - 0.0
30/07:30pm 21.7 18.3 15.9 69 3.5 S 28 35 15 19 1015.9 - 0.0
30/07:00pm 22.0 19.7 16.7 72 3.2 S 24 32 13 17 1015.6 - 0.0
30/06:30pm 22.2 19.5 15.5 66 4.0 S 24 30 13 16 1015.1 - 0.0
30/06:00pm 22.4 18.8 13.0 55 5.4 S 24 30 13 16 1015.1 1015.1 0.0
30/05:30pm 22.9 18.6 12.1 50 6.1 S 26 33 14 18 1015.1 - 0.0
30/05:00pm 23.1 18.5 12.2 50 6.2 S 28 41 15 22 1015.0 - 0.0
30/04:30pm 24.1 18.4 11.0 43 7.3 S 32 41 17 22 1014.9 - 0.0
30/04:00pm 23.9 17.7 11.4 45 7.0 S 35 44 19 24 1014.8 - 0.0
30/03:30pm 23.8 18.3 12.4 48 6.5 S 33 43 18 23 1014.7 - 0.0
30/03:00pm 23.8 18.3 13.7 53 5.9 S 35 43 19 23 1014.8 1014.8 0.0
30/02:30pm 23.9 18.6 13.0 50 6.3 S 33 43 18 23 1015.1 - 0.0
30/02:00pm 23.9 18.6 13.0 50 6.3 S 33 41 18 22 1015.4 - 0.0
30/01:30pm 23.8 18.5 12.6 49 6.4 S 32 39 17 21 1015.9 - 0.0
30/01:00pm 25.0 19.6 10.9 41 7.9 S 30 37 16 20 1016.3 - 0.0
30/12:30pm 24.8 19.8 10.8 41 7.8 S 28 39 15 21 1016.7 - 0.0
30/12:00pm 25.1 18.7 6.9 31 9.5 SSE 30 39 16 21 1017.1 1017.1 0.0
30/11:30am 24.5 18.2 7.3 33 9.0 SSE 30 41 16 22 1017.6 - 0.0
30/11:00am 24.2 17.6 7.6 34 8.7 SE 32 41 17 22 1018.1 - 0.0
30/10:30am 22.9 16.5 8.6 40 7.6 SE 32 39 17 21 1018.6 - 0.0
30/10:00am 22.1 15.7 9.2 43 6.9 SE 33 44 18 24 1018.8 - 0.0
30/09:30am 21.4 15.2 9.4 46 6.4 SE 32 41 17 22 1019.2 - 0.0
30/09:00am 20.4 14.2 9.9 51 5.6 SE 33 44 18 24 1019.2 1019.2 0.0
30/08:30am 19.4 14.0 10.9 58 4.6 SE 30 37 16 20 1019.2 - 0.0
30/08:00am 17.6 13.8 11.3 66 3.4 SE 22 30 12 16 1019.0 - 0.0
30/07:30am 16.1 13.3 11.2 72 2.6 SE 17 22 9 12 1018.9 - 0.0
30/07:00am 15.6 13.2 11.3 75 2.3 SE 15 19 8 10 1018.5 - 0.0
30/06:30am 16.0 13.6 11.3 73 2.5 SE 15 19 8 10 1018.3 - 0.0
30/06:00am 16.5 13.4 11.5 72 2.7 SSE 19 22 10 12 1018.0 1018.0 0.0
30/05:30am 16.9 13.5 11.3 69 3.0 SSE 20 28 11 15 1017.6 - 0.0
30/05:00am 16.9 13.5 11.3 69 3.0 SSE 20 26 11 14 1017.4 - 0.0
30/04:30am 17.1 13.7 11.4 69 3.1 SSE 20 26 11 14 1017.2 - 0.0
30/04:00am 17.4 14.1 11.5 68 3.2 SSE 20 24 11 13 1016.9 - 0.0
30/03:30am 17.7 14.6 11.7 68 3.3 SSE 19 26 10 14 1016.7 - 0.0
30/03:00am 17.8 13.8 11.8 68 3.3 SSE 24 30 13 16 1016.9 1016.9 0.0
30/02:30am 18.0 14.9 12.2 69 3.2 SE 20 28 11 15 1016.8 - 0.0
30/02:00am 18.2 15.4 12.6 70 3.1 SE 19 24 10 13 1017.0 - 0.0
30/01:30am 18.4 15.5 12.9 70 3.1 SE 20 28 11 15 1016.9 - 0.0
30/01:00am 18.9 15.5 13.6 71 3.0 SSE 24 33 13 18 1016.9 - 0.0
30/12:30am 19.3 15.5 13.7 70 3.2 SSE 26 37 14 20 1017.1 - 0.0
30/12:00am 19.6 15.4 13.6 68 3.4 SSE 28 37 15 20 1017.0 1017.0 0.0
 
Date/Time
WST
Temp
°C
App
Temp
°C
Dew
Point
Rel
Hum
%
Delta-T
°C
Wind Press
QNH
hPa
Press
MSL
hPa
Rain
since 9 am
mm
Dir
 
Spd
km/h
Gust
km/h
Spd
kts
Gust
kts
29/11:30pm 19.8 15.6 13.5 67 3.6 SSE 28 37 15 20 1017.1 - 0.0
29/11:00pm 19.8 15.7 13.7 68 3.5 SSE 28 37 15 20 1017.3 - 0.0
29/10:30pm 19.9 15.6 13.2 65 3.8 S 28 35 15 19 1017.6 - 0.0
29/10:00pm 20.1 16.2 14.4 69 3.3 S 28 33 15 18 1017.7 - 0.0
29/09:30pm 20.4 16.4 14.2 67 3.6 S 28 37 15 20 1017.5 - 0.0
29/09:00pm 20.8 16.6 14.6 67 3.6 S 30 43 16 23 1017.6 1017.6 0.0
29/08:30pm 21.1 17.2 15.5 70 3.3 SSW 30 39 16 21 1017.5 - 0.0
29/08:00pm 21.5 18.3 16.2 72 3.2 SSW 28 35 15 19 1017.1 - 0.0
29/07:30pm 21.8 19.8 16.5 72 3.2 SSW 22 30 12 16 1017.0 - 0.0
29/07:00pm 21.7 19.9 15.9 69 3.5 SSW 20 24 11 13 1016.5 - 0.0
29/06:30pm 21.8 19.8 15.4 67 3.8 SSW 20 26 11 14 1016.2 - 0.0
29/06:00pm 22.0 19.7 14.7 63 4.3 SSW 20 24 11 13 1016.0 1016.0 0.0
29/05:30pm 23.0 19.9 13.5 55 5.5 SSW 22 30 12 16 1015.6 - 0.0
29/05:00pm 24.0 19.0 9.4 39 7.9 S 26 35 14 19 1015.6 - 0.0
29/04:30pm 25.2 18.4 7.1 31 9.5 S 32 43 17 23 1015.9 - 0.0
29/04:00pm 24.9 18.4 6.6 31 9.5 S 30 39 16 21 1015.9 - 0.0
29/03:30pm 25.3 19.0 8.8 35 8.9 S 32 43 17 23 1015.9 - 0.0
29/03:00pm 25.5 17.8 5.2 27 10.3 S 35 43 19 23 1015.8 1015.8 0.0
29/02:30pm 25.5 17.9 5.8 28 10.1 S 35 44 19 24 1015.9 - 0.0
29/02:00pm 24.2 18.4 11.4 44 7.2 SSW 33 43 18 23 1016.0 - 0.0
29/01:30pm 24.3 18.1 11.5 44 7.2 S 35 43 19 23 1016.1 - 0.0
29/01:00pm 25.6 19.2 6.9 30 9.8 S 30 43 16 23 1016.4 - 0.0
29/12:30pm 24.0 18.6 10.9 43 7.3 S 30 39 16 21 1016.8 - 0.0
29/12:00pm 25.1 19.6 7.7 33 9.2 S 26 37 14 20 1017.1 1017.1 0.0
29/11:30am 24.3 19.2 5.8 30 9.4 SSE 22 37 12 20 1017.6 - 0.0
29/11:00am 23.7 18.2 5.7 31 9.1 SSE 24 37 13 20 1018.1 - 0.0
29/10:30am 23.2 17.4 6.3 33 8.6 SE 26 37 14 20 1018.4 - 0.0
29/10:00am 22.7 17.8 6.7 35 8.2 SE 22 30 12 16 1018.6 - 0.0
29/09:30am 21.5 16.3 7.3 40 7.3 SE 24 32 13 17 1018.7 - 0.0
29/09:00am 20.2 15.2 8.2 46 6.2 ESE 24 30 13 16 1018.7 1018.7 0.0
29/08:30am 18.8 13.8 9.5 54 4.9 ESE 26 33 14 18 1018.7 - 0.0
29/08:00am 17.1 13.6 10.1 63 3.7 SE 19 24 10 13 1018.6 - 0.0
29/07:30am 15.2 12.5 10.2 72 2.6 SE 15 19 8 10 1018.4 - 0.0
29/07:00am 13.8 10.9 9.7 76 2.1 SE 15 19 8 10 1018.2 - 0.0
29/06:30am 14.0 11.4 9.5 74 2.3 SE 13 17 7 9 1018.1 - 0.0
29/06:00am 14.6 11.7 9.8 73 2.5 SE 15 17 8 9 1018.0 1018.0 0.0
29/05:30am 15.0 11.7 9.6 70 2.8 SE 17 20 9 11 1017.8 - 0.0
29/05:00am 15.4 11.7 9.6 68 3.0 SE 19 22 10 12 1017.8 - 0.0
29/04:30am 15.9 12.2 9.5 66 3.3 SE 19 24 10 13 1017.6 - 0.0
29/04:00am 15.8 12.0 9.2 65 3.4 SE 19 22 10 12 1017.4 - 0.0
29/03:30am 15.7 12.1 9.7 67 3.1 SE 19 22 10 12 1017.6 - 0.0
29/03:00am 15.9 12.7 10.0 68 3.1 SE 17 20 9 11 1017.7 1017.7 0.0
29/02:30am 16.2 12.8 10.5 69 3.0 SE 19 24 10 13 1017.4 - 0.0
29/02:00am 16.6 13.7 11.0 69 3.0 SE 17 22 9 12 1017.4 - 0.0
29/01:30am 17.1 14.4 11.6 70 3.0 SSE 17 20 9 11 1017.3 - 0.0
29/01:00am 17.6 15.2 12.5 72 2.8 SSE 17 20 9 11 1017.4 - 0.0
29/12:30am 18.1 15.2 12.3 69 3.2 SSE 19 22 10 12 1017.4 - 0.0
29/12:00am 18.5 14.8 11.5 63 3.8 SSE 22 30 12 16 1017.3 1017.3 0.0
 
Date/Time
WST
Temp
°C
App
Temp
°C
Dew
Point
Rel
Hum
%
Delta-T
°C
Wind Press
QNH
hPa
Press
MSL
hPa
Rain
since 9 am
mm
Dir
 
Spd
km/h
Gust
km/h
Spd
kts
Gust
kts
28/11:30pm 18.3 14.5 11.3 63 3.8 SSE 22 26 12 14 1017.3 - 0.0
28/11:00pm 18.0 15.7 11.6 66 3.5 SSE 15 17 8 9 1017.6 - 0.0
28/10:30pm 18.7 16.0 11.8 64 3.8 SSE 17 20 9 11 1017.5 - 0.0
28/10:00pm 19.2 15.7 12.2 64 3.9 S 22 30 12 16 1017.2 - 0.0
28/09:30pm 19.2 15.7 12.2 64 3.9 S 22 28 12 15 1017.3 - 0.0
28/09:00pm 19.5 16.0 12.1 62 4.1 S 22 32 12 17 1017.3 1017.3 0.0
28/08:30pm 19.9 16.1 12.4 62 4.2 S 24 30 13 16 1017.3 - 0.0
28/08:00pm 20.2 16.9 11.7 58 4.7 S 20 24 11 13 1017.1 - 0.0
28/07:30pm 19.8 16.6 10.1 53 5.2 SSE 17 20 9 11 1017.2 - 0.0
28/07:00pm 20.1 16.2 9.6 51 5.6 SSE 20 24 11 13 1016.6 - 0.0
28/06:30pm 20.2 16.2 9.0 48 5.9 SSE 20 26 11 14 1016.7 - 0.0
28/06:00pm 20.7 16.0 7.7 43 6.7 SSE 22 32 12 17 1016.3 1016.3 0.0
28/05:30pm 21.2 15.5 6.6 38 7.4 SSE 26 35 14 19 1015.9 - 0.0
28/05:00pm 21.5 15.9 8.6 43 6.8 SSE 28 35 15 19 1016.1 - 0.0
28/04:30pm 21.9 16.5 9.4 45 6.7 S 28 39 15 21 1016.1 - 0.0
28/04:00pm 21.7 16.2 10.5 49 6.1 SSE 30 37 16 20 1015.6 - 0.0
28/03:30pm 21.8 15.9 10.4 48 6.2 SSE 32 39 17 21 1015.7 - 0.0
28/03:00pm 22.0 16.2 10.7 48 6.2 S 32 39 17 21 1015.6 1015.6 0.0
28/02:30pm 21.7 16.0 11.9 53 5.5 S 33 43 18 23 1015.5 - 0.0
28/02:00pm 21.7 16.0 11.9 53 5.5 S 33 44 18 24 1015.6 - 0.0
28/01:30pm 22.1 16.2 11.3 50 6.0 S 33 41 18 22 1016.0 - 0.0
28/01:00pm 22.6 16.9 11.9 50 6.0 S 33 43 18 23 1016.1 - 0.0
28/12:30pm 22.3 17.5 11.8 51 5.9 S 28 37 15 20 1016.8 - 0.0
28/12:00pm 22.0 16.9 10.5 48 6.3 S 28 37 15 20 1017.1 1017.1 0.0
28/11:30am 22.6 17.0 8.6 40 7.4 SSE 28 35 15 19 1017.1 - 0.0
28/11:00am 22.4 17.0 9.4 43 7.0 SSE 28 32 15 17 1017.6 - 0.0
28/10:30am 22.3 18.1 9.7 44 6.8 SSE 22 30 12 16 1018.1 - 0.0
28/10:00am 21.6 17.3 9.4 45 6.5 SSE 22 30 12 16 1018.0 - 0.0
28/09:30am 21.2 17.1 10.1 49 6.0 SE 22 30 12 16 1018.2 - 0.0
28/09:00am 19.4 14.8 9.6 53 5.2 SE 24 32 13 17 1017.5 1017.5 0.0
28/08:30am 19.1 14.8 9.2 52 5.2 SE 22 28 12 15 1017.5 - 0.0
28/08:00am 18.5 15.1 9.3 55 4.8 SE 17 22 9 12 1017.8 - 0.0
28/07:30am 17.4 14.9 9.8 61 4.0 SE 13 15 7 8 1017.5 - 0.0
28/07:00am 16.9 14.4 9.8 63 3.7 SE 13 17 7 9 1016.7 - 0.0
28/06:30am 16.8 14.8 10.2 65 3.5 SE 11 13 6 7 1016.4 - 0.0
28/06:00am 17.0 14.6 10.2 64 3.6 SE 13 15 7 8 1016.3 1016.3 0.0
28/05:30am 17.1 15.3 10.7 66 3.4 SE 11 15 6 8 1016.1 - 0.0
28/05:00am 17.3 15.2 11.0 66 3.4 SE 13 15 7 8 1016.0 - 0.0
28/04:30am 18.1 15.2 11.1 63 3.8 SE 17 20 9 11 1015.4 - 0.0
28/04:00am 18.4 15.8 10.8 61 4.1 SE 15 19 8 10 1015.5 - 0.0
28/03:30am 18.2 15.9 11.8 66 3.5 SE 15 17 8 9 1015.4 - 0.0
28/03:00am 18.2 16.7 11.8 66 3.5 SE 11 15 6 8 1015.7 1015.7 0.0
28/02:30am 19.1 16.8 11.9 63 4.0 SSE 15 20 8 11 1015.8 - 0.0
28/02:00am 19.7 17.1 11.9 60 4.3 SSE 17 20 9 11 1015.9 - 0.0
28/01:30am 20.1 17.1 12.6 62 4.2 S 20 26 11 14 1015.9 - 0.0
28/01:00am 20.2 17.3 13.0 63 4.1 S 20 28 11 15 1015.5 - 0.0
28/12:30am 20.3 17.1 13.1 63 4.1 S 22 30 12 16 1015.7 - 0.0
28/12:00am 20.2 16.8 12.6 61 4.3 S 22 30 12 16 1015.8 1015.8 0.0
 
Date/Time
WST
Temp
°C
App
Temp
°C
Dew
Point
Rel
Hum
%
Delta-T
°C
Wind Press
QNH
hPa
Press
MSL
hPa
Rain
since 9 am
mm
Dir
 
Spd
km/h
Gust
km/h
Spd
kts
Gust
kts
27/11:30pm 20.3 17.0 12.9 62 4.2 S 22 32 12 17 1015.9 - 0.0
27/11:00pm 20.3 16.7 13.1 63 4.1 S 24 32 13 17 1016.0 - 0.0
27/10:30pm 20.5 16.9 13.1 62 4.2 S 24 32 13 17 1015.9 - 0.0
27/10:00pm 20.6 17.0 13.2 62 4.2 S 24 32 13 17 1015.8 - 0.0
27/09:30pm 20.7 17.6 13.4 63 4.2 S 22 30 12 16 1015.9 - 0.0

Other Formats:

Comma delimited format used in spreadsheet applications
http://www.bom.gov.au/fwo/IDW60801/IDW60801.94300.axf

JavaScript Object Notation format (JSON) in row-major order
http://www.bom.gov.au/fwo/IDW60801/IDW60801.94300.json